sensor_id;sensor_type;location;lat;lon;timestamp;P1;durP1;ratioP1;P2;durP2;ratioP2
78365;SDS011;67641;59.864;30.464;2023-12-04T00:02:23;11.02;;;4.78;;
78365;SDS011;67641;59.864;30.464;2023-12-04T00:04:50;12.85;;;4.28;;
78365;SDS011;67641;59.864;30.464;2023-12-04T00:07:16;10.13;;;3.67;;
78365;SDS011;67641;59.864;30.464;2023-12-04T00:09:43;8.40;;;4.15;;
78365;SDS011;67641;59.864;30.464;2023-12-04T00:12:10;11.90;;;4.57;;
78365;SDS011;67641;59.864;30.464;2023-12-04T00:14:36;12.02;;;4.15;;
78365;SDS011;67641;59.864;30.464;2023-12-04T00:17:03;10.13;;;4.40;;
78365;SDS011;67641;59.864;30.464;2023-12-04T00:19:29;9.20;;;4.10;;
78365;SDS011;67641;59.864;30.464;2023-12-04T00:21:56;14.60;;;4.57;;
78365;SDS011;67641;59.864;30.464;2023-12-04T00:24:22;8.48;;;4.28;;
78365;SDS011;67641;59.864;30.464;2023-12-04T00:26:49;9.70;;;5.20;;
78365;SDS011;67641;59.864;30.464;2023-12-04T00:29:15;10.55;;;4.68;;
78365;SDS011;67641;59.864;30.464;2023-12-04T00:31:42;11.13;;;4.50;;
78365;SDS011;67641;59.864;30.464;2023-12-04T00:34:08;11.93;;;4.50;;
78365;SDS011;67641;59.864;30.464;2023-12-04T00:36:35;8.25;;;4.75;;
78365;SDS011;67641;59.864;30.464;2023-12-04T00:39:01;9.75;;;5.38;;
78365;SDS011;67641;59.864;30.464;2023-12-04T00:41:29;12.13;;;4.53;;
78365;SDS011;67641;59.864;30.464;2023-12-04T00:43:57;10.85;;;4.47;;
78365;SDS011;67641;59.864;30.464;2023-12-04T00:46:23;9.68;;;4.18;;
78365;SDS011;67641;59.864;30.464;2023-12-04T00:48:50;11.82;;;4.82;;
78365;SDS011;67641;59.864;30.464;2023-12-04T00:51:16;13.85;;;4.20;;
78365;SDS011;67641;59.864;30.464;2023-12-04T00:53:43;11.23;;;4.90;;
78365;SDS011;67641;59.864;30.464;2023-12-04T00:56:09;10.20;;;4.70;;
78365;SDS011;67641;59.864;30.464;2023-12-04T00:58:36;9.85;;;4.88;;
78365;SDS011;67641;59.864;30.464;2023-12-04T01:01:03;11.73;;;5.47;;
78365;SDS011;67641;59.864;30.464;2023-12-04T01:03:29;11.07;;;5.18;;
78365;SDS011;67641;59.864;30.464;2023-12-04T01:05:58;10.77;;;4.10;;
78365;SDS011;67641;59.864;30.464;2023-12-04T01:08:25;10.77;;;4.68;;
78365;SDS011;67641;59.864;30.464;2023-12-04T01:10:51;13.27;;;5.57;;
78365;SDS011;67641;59.864;30.464;2023-12-04T01:13:17;15.63;;;5.80;;
78365;SDS011;67641;59.864;30.464;2023-12-04T01:15:43;9.95;;;4.85;;
78365;SDS011;67641;59.864;30.464;2023-12-04T01:18:12;7.63;;;4.13;;
78365;SDS011;67641;59.864;30.464;2023-12-04T01:20:38;13.65;;;4.90;;
78365;SDS011;67641;59.864;30.464;2023-12-04T01:23:04;10.88;;;4.18;;
78365;SDS011;67641;59.864;30.464;2023-12-04T01:25:30;10.40;;;4.28;;
78365;SDS011;67641;59.864;30.464;2023-12-04T01:27:56;9.65;;;3.78;;
78365;SDS011;67641;59.864;30.464;2023-12-04T01:30:22;10.00;;;3.58;;
78365;SDS011;67641;59.864;30.464;2023-12-04T01:32:48;11.27;;;4.20;;
78365;SDS011;67641;59.864;30.464;2023-12-04T01:35:14;11.68;;;4.10;;
78365;SDS011;67641;59.864;30.464;2023-12-04T01:37:40;14.95;;;5.32;;
78365;SDS011;67641;59.864;30.464;2023-12-04T01:40:07;11.43;;;4.68;;
78365;SDS011;67641;59.864;30.464;2023-12-04T01:42:34;14.38;;;4.43;;
78365;SDS011;67641;59.864;30.464;2023-12-04T01:45:00;17.83;;;4.45;;
78365;SDS011;67641;59.864;30.464;2023-12-04T01:47:26;12.63;;;4.63;;
78365;SDS011;67641;59.864;30.464;2023-12-04T01:49:52;8.10;;;4.50;;
78365;SDS011;67641;59.864;30.464;2023-12-04T01:52:19;11.63;;;4.55;;
78365;SDS011;67641;59.864;30.464;2023-12-04T01:54:45;12.68;;;3.72;;
78365;SDS011;67641;59.864;30.464;2023-12-04T01:57:12;12.10;;;4.25;;
78365;SDS011;67641;59.864;30.464;2023-12-04T01:59:38;7.88;;;4.00;;
78365;SDS011;67641;59.864;30.464;2023-12-04T02:02:04;10.25;;;4.82;;
78365;SDS011;67641;59.864;30.464;2023-12-04T02:04:30;15.00;;;4.57;;
78365;SDS011;67641;59.864;30.464;2023-12-04T02:06:58;16.85;;;4.97;;
78365;SDS011;67641;59.864;30.464;2023-12-04T02:09:24;9.60;;;4.75;;
78365;SDS011;67641;59.864;30.464;2023-12-04T02:11:51;10.32;;;4.32;;
78365;SDS011;67641;59.864;30.464;2023-12-04T02:14:18;12.50;;;3.58;;
78365;SDS011;67641;59.864;30.464;2023-12-04T02:16:44;9.38;;;4.03;;
78365;SDS011;67641;59.864;30.464;2023-12-04T02:19:11;7.22;;;3.25;;
78365;SDS011;67641;59.864;30.464;2023-12-04T02:21:38;11.75;;;4.00;;
78365;SDS011;67641;59.864;30.464;2023-12-04T02:24:04;8.00;;;3.70;;
78365;SDS011;67641;59.864;30.464;2023-12-04T02:26:32;16.70;;;4.00;;
78365;SDS011;67641;59.864;30.464;2023-12-04T02:29:05;12.20;;;3.92;;
78365;SDS011;67641;59.864;30.464;2023-12-04T02:31:34;12.07;;;3.70;;
78365;SDS011;67641;59.864;30.464;2023-12-04T02:34:00;9.95;;;3.90;;
78365;SDS011;67641;59.864;30.464;2023-12-04T02:36:30;10.02;;;3.65;;
78365;SDS011;67641;59.864;30.464;2023-12-04T02:38:57;11.30;;;3.90;;
78365;SDS011;67641;59.864;30.464;2023-12-04T02:41:23;11.00;;;4.65;;
78365;SDS011;67641;59.864;30.464;2023-12-04T02:43:49;10.55;;;4.30;;
78365;SDS011;67641;59.864;30.464;2023-12-04T02:46:16;8.52;;;3.70;;
78365;SDS011;67641;59.864;30.464;2023-12-04T02:48:42;14.82;;;3.90;;
78365;SDS011;67641;59.864;30.464;2023-12-04T02:51:08;9.25;;;3.30;;
78365;SDS011;67641;59.864;30.464;2023-12-04T02:53:35;11.30;;;3.75;;
78365;SDS011;67641;59.864;30.464;2023-12-04T02:56:01;7.72;;;3.25;;
78365;SDS011;67641;59.864;30.464;2023-12-04T02:58:30;9.73;;;3.20;;
78365;SDS011;67641;59.864;30.464;2023-12-04T03:00:59;10.63;;;3.80;;
78365;SDS011;67641;59.864;30.464;2023-12-04T03:03:25;13.25;;;4.00;;
78365;SDS011;67641;59.864;30.464;2023-12-04T03:05:51;7.43;;;3.42;;
78365;SDS011;67641;59.864;30.464;2023-12-04T03:08:17;14.23;;;4.40;;
78365;SDS011;67641;59.864;30.464;2023-12-04T03:10:44;6.97;;;3.55;;
78365;SDS011;67641;59.864;30.464;2023-12-04T03:13:10;10.02;;;3.55;;
78365;SDS011;67641;59.864;30.464;2023-12-04T03:15:36;10.95;;;5.07;;
78365;SDS011;67641;59.864;30.464;2023-12-04T03:18:02;15.23;;;3.88;;
78365;SDS011;67641;59.864;30.464;2023-12-04T03:20:28;12.68;;;4.07;;
78365;SDS011;67641;59.864;30.464;2023-12-04T03:22:54;8.50;;;4.03;;
78365;SDS011;67641;59.864;30.464;2023-12-04T03:25:20;8.52;;;3.58;;
78365;SDS011;67641;59.864;30.464;2023-12-04T03:27:46;10.52;;;4.15;;
78365;SDS011;67641;59.864;30.464;2023-12-04T03:30:13;10.90;;;3.80;;
78365;SDS011;67641;59.864;30.464;2023-12-04T03:32:39;8.48;;;3.47;;
78365;SDS011;67641;59.864;30.464;2023-12-04T03:35:05;11.40;;;4.03;;
78365;SDS011;67641;59.864;30.464;2023-12-04T03:37:31;11.98;;;3.72;;
78365;SDS011;67641;59.864;30.464;2023-12-04T03:39:57;11.55;;;3.95;;
78365;SDS011;67641;59.864;30.464;2023-12-04T03:42:23;8.85;;;3.83;;
78365;SDS011;67641;59.864;30.464;2023-12-04T03:44:49;15.90;;;4.22;;
78365;SDS011;67641;59.864;30.464;2023-12-04T03:47:16;11.30;;;4.00;;
78365;SDS011;67641;59.864;30.464;2023-12-04T03:49:42;13.50;;;4.10;;
78365;SDS011;67641;59.864;30.464;2023-12-04T03:52:08;12.73;;;4.28;;
78365;SDS011;67641;59.864;30.464;2023-12-04T03:54:34;13.05;;;4.18;;
78365;SDS011;67641;59.864;30.464;2023-12-04T03:57:00;15.70;;;4.03;;
78365;SDS011;67641;59.864;30.464;2023-12-04T03:59:26;9.20;;;3.75;;
78365;SDS011;67641;59.864;30.464;2023-12-04T04:01:53;12.88;;;3.90;;
78365;SDS011;67641;59.864;30.464;2023-12-04T04:04:19;10.20;;;3.47;;
78365;SDS011;67641;59.864;30.464;2023-12-04T04:06:45;10.13;;;3.42;;
78365;SDS011;67641;59.864;30.464;2023-12-04T04:09:11;12.23;;;3.97;;
78365;SDS011;67641;59.864;30.464;2023-12-04T04:11:37;13.32;;;4.38;;
78365;SDS011;67641;59.864;30.464;2023-12-04T04:14:03;16.55;;;4.45;;
78365;SDS011;67641;59.864;30.464;2023-12-04T04:16:29;15.27;;;4.25;;
78365;SDS011;67641;59.864;30.464;2023-12-04T04:18:55;8.55;;;3.90;;
78365;SDS011;67641;59.864;30.464;2023-12-04T04:21:21;8.35;;;4.18;;
78365;SDS011;67641;59.864;30.464;2023-12-04T04:23:47;14.07;;;4.47;;
78365;SDS011;67641;59.864;30.464;2023-12-04T04:26:13;20.25;;;4.75;;
78365;SDS011;67641;59.864;30.464;2023-12-04T04:28:40;14.98;;;4.70;;
78365;SDS011;67641;59.864;30.464;2023-12-04T04:31:06;12.02;;;4.03;;
78365;SDS011;67641;59.864;30.464;2023-12-04T04:33:32;17.02;;;5.15;;
78365;SDS011;67641;59.864;30.464;2023-12-04T04:35:58;17.55;;;4.60;;
78365;SDS011;67641;59.864;30.464;2023-12-04T04:38:24;12.32;;;5.63;;
78365;SDS011;67641;59.864;30.464;2023-12-04T04:40:50;13.82;;;5.00;;
78365;SDS011;67641;59.864;30.464;2023-12-04T04:43:19;12.18;;;5.35;;
78365;SDS011;67641;59.864;30.464;2023-12-04T04:45:45;16.60;;;4.85;;
78365;SDS011;67641;59.864;30.464;2023-12-04T04:48:11;15.10;;;4.95;;
78365;SDS011;67641;59.864;30.464;2023-12-04T04:50:37;14.38;;;5.72;;
78365;SDS011;67641;59.864;30.464;2023-12-04T04:53:03;14.95;;;6.07;;
78365;SDS011;67641;59.864;30.464;2023-12-04T04:55:30;16.95;;;6.10;;
78365;SDS011;67641;59.864;30.464;2023-12-04T04:57:57;12.23;;;5.53;;
78365;SDS011;67641;59.864;30.464;2023-12-04T05:00:24;22.95;;;7.32;;
78365;SDS011;67641;59.864;30.464;2023-12-04T05:02:50;20.10;;;7.40;;
78365;SDS011;67641;59.864;30.464;2023-12-04T05:05:17;17.55;;;7.18;;
78365;SDS011;67641;59.864;30.464;2023-12-04T05:07:43;18.88;;;5.75;;
78365;SDS011;67641;59.864;30.464;2023-12-04T05:10:09;18.33;;;7.70;;
78365;SDS011;67641;59.864;30.464;2023-12-04T05:12:35;24.92;;;7.60;;
78365;SDS011;67641;59.864;30.464;2023-12-04T05:15:01;17.52;;;7.25;;
78365;SDS011;67641;59.864;30.464;2023-12-04T05:17:27;14.02;;;5.53;;
78365;SDS011;67641;59.864;30.464;2023-12-04T05:19:53;16.88;;;6.88;;
78365;SDS011;67641;59.864;30.464;2023-12-04T05:22:19;19.15;;;7.40;;
78365;SDS011;67641;59.864;30.464;2023-12-04T05:24:46;20.58;;;6.57;;
78365;SDS011;67641;59.864;30.464;2023-12-04T05:27:12;21.38;;;6.35;;
78365;SDS011;67641;59.864;30.464;2023-12-04T05:29:38;21.90;;;7.13;;
78365;SDS011;67641;59.864;30.464;2023-12-04T05:32:04;26.88;;;7.53;;
78365;SDS011;67641;59.864;30.464;2023-12-04T05:34:30;25.85;;;7.40;;
78365;SDS011;67641;59.864;30.464;2023-12-04T05:36:56;21.98;;;7.32;;
78365;SDS011;67641;59.864;30.464;2023-12-04T05:39:22;24.75;;;7.35;;
78365;SDS011;67641;59.864;30.464;2023-12-04T05:41:48;28.77;;;7.22;;
78365;SDS011;67641;59.864;30.464;2023-12-04T05:44:14;29.63;;;7.22;;
78365;SDS011;67641;59.864;30.464;2023-12-04T05:46:41;22.38;;;7.50;;
78365;SDS011;67641;59.864;30.464;2023-12-04T05:49:07;22.60;;;7.20;;
78365;SDS011;67641;59.864;30.464;2023-12-04T05:51:33;27.27;;;7.60;;
78365;SDS011;67641;59.864;30.464;2023-12-04T05:53:59;25.55;;;7.82;;
78365;SDS011;67641;59.864;30.464;2023-12-04T05:56:25;32.40;;;7.47;;
78365;SDS011;67641;59.864;30.464;2023-12-04T05:58:52;29.42;;;7.93;;
78365;SDS011;67641;59.864;30.464;2023-12-04T06:01:18;24.05;;;8.13;;
78365;SDS011;67641;59.864;30.464;2023-12-04T06:03:44;29.75;;;8.10;;
78365;SDS011;67641;59.864;30.464;2023-12-04T06:06:10;19.08;;;7.85;;
78365;SDS011;67641;59.864;30.464;2023-12-04T06:08:36;29.48;;;8.63;;
78365;SDS011;67641;59.864;30.464;2023-12-04T06:11:03;38.80;;;9.02;;
78365;SDS011;67641;59.864;30.464;2023-12-04T06:13:29;27.90;;;8.38;;
78365;SDS011;67641;59.864;30.464;2023-12-04T06:15:55;26.13;;;8.45;;
78365;SDS011;67641;59.864;30.464;2023-12-04T06:18:21;26.10;;;7.60;;
78365;SDS011;67641;59.864;30.464;2023-12-04T06:20:47;29.23;;;7.95;;
78365;SDS011;67641;59.864;30.464;2023-12-04T06:23:14;30.23;;;8.35;;
78365;SDS011;67641;59.864;30.464;2023-12-04T06:25:41;37.50;;;8.80;;
78365;SDS011;67641;59.864;30.464;2023-12-04T06:28:07;31.80;;;7.53;;
78365;SDS011;67641;59.864;30.464;2023-12-04T06:30:34;29.75;;;8.57;;
78365;SDS011;67641;59.864;30.464;2023-12-04T06:33:00;36.78;;;7.85;;
78365;SDS011;67641;59.864;30.464;2023-12-04T06:35:27;28.80;;;8.45;;
78365;SDS011;67641;59.864;30.464;2023-12-04T06:37:53;33.67;;;8.38;;
78365;SDS011;67641;59.864;30.464;2023-12-04T06:40:20;27.15;;;7.93;;
78365;SDS011;67641;59.864;30.464;2023-12-04T06:42:48;27.38;;;7.20;;
78365;SDS011;67641;59.864;30.464;2023-12-04T06:45:14;63.42;;;40.60;;
78365;SDS011;67641;59.864;30.464;2023-12-04T06:47:40;24.83;;;6.88;;
78365;SDS011;67641;59.864;30.464;2023-12-04T06:50:09;23.48;;;6.10;;
78365;SDS011;67641;59.864;30.464;2023-12-04T06:52:35;24.80;;;5.30;;
78365;SDS011;67641;59.864;30.464;2023-12-04T06:55:01;25.88;;;6.18;;
78365;SDS011;67641;59.864;30.464;2023-12-04T06:57:28;27.95;;;7.40;;
78365;SDS011;67641;59.864;30.464;2023-12-04T06:59:55;24.27;;;7.35;;
78365;SDS011;67641;59.864;30.464;2023-12-04T07:02:22;27.90;;;6.13;;
78365;SDS011;67641;59.864;30.464;2023-12-04T07:04:48;27.48;;;6.20;;
78365;SDS011;67641;59.864;30.464;2023-12-04T07:07:14;24.52;;;6.10;;
78365;SDS011;67641;59.864;30.464;2023-12-04T07:09:40;31.15;;;6.55;;
78365;SDS011;67641;59.864;30.464;2023-12-04T07:12:06;23.67;;;6.32;;
78365;SDS011;67641;59.864;30.464;2023-12-04T07:14:33;33.08;;;7.20;;
78365;SDS011;67641;59.864;30.464;2023-12-04T07:16:59;19.45;;;5.20;;
78365;SDS011;67641;59.864;30.464;2023-12-04T07:19:25;27.83;;;5.97;;
78365;SDS011;67641;59.864;30.464;2023-12-04T07:21:52;23.55;;;6.15;;
78365;SDS011;67641;59.864;30.464;2023-12-04T07:24:18;28.13;;;6.75;;
78365;SDS011;67641;59.864;30.464;2023-12-04T07:26:44;27.98;;;5.95;;
78365;SDS011;67641;59.864;30.464;2023-12-04T07:29:10;18.92;;;5.57;;
78365;SDS011;67641;59.864;30.464;2023-12-04T07:31:37;18.95;;;5.18;;
78365;SDS011;67641;59.864;30.464;2023-12-04T07:34:03;14.18;;;4.28;;
78365;SDS011;67641;59.864;30.464;2023-12-04T07:36:29;17.20;;;4.97;;
78365;SDS011;67641;59.864;30.464;2023-12-04T07:38:55;18.35;;;5.05;;
78365;SDS011;67641;59.864;30.464;2023-12-04T07:41:21;17.90;;;5.35;;
78365;SDS011;67641;59.864;30.464;2023-12-04T07:43:48;16.02;;;5.20;;
78365;SDS011;67641;59.864;30.464;2023-12-04T07:46:14;15.85;;;4.68;;
78365;SDS011;67641;59.864;30.464;2023-12-04T07:48:40;20.90;;;5.25;;
78365;SDS011;67641;59.864;30.464;2023-12-04T07:51:06;15.43;;;5.25;;
78365;SDS011;67641;59.864;30.464;2023-12-04T07:53:33;14.95;;;4.72;;
78365;SDS011;67641;59.864;30.464;2023-12-04T07:56:02;15.32;;;4.10;;
78365;SDS011;67641;59.864;30.464;2023-12-04T07:58:32;22.20;;;5.50;;
78365;SDS011;67641;59.864;30.464;2023-12-04T08:00:58;15.07;;;4.32;;
78365;SDS011;67641;59.864;30.464;2023-12-04T08:03:24;18.42;;;4.63;;
78365;SDS011;67641;59.864;30.464;2023-12-04T08:05:51;18.70;;;5.20;;
78365;SDS011;67641;59.864;30.464;2023-12-04T08:08:17;16.30;;;5.00;;
78365;SDS011;67641;59.864;30.464;2023-12-04T08:10:43;17.83;;;5.47;;
78365;SDS011;67641;59.864;30.464;2023-12-04T08:13:09;19.25;;;5.13;;
78365;SDS011;67641;59.864;30.464;2023-12-04T08:15:36;12.75;;;5.22;;
78365;SDS011;67641;59.864;30.464;2023-12-04T08:18:02;20.63;;;5.85;;
78365;SDS011;67641;59.864;30.464;2023-12-04T08:20:28;17.92;;;4.65;;
78365;SDS011;67641;59.864;30.464;2023-12-04T08:22:54;22.95;;;4.95;;
78365;SDS011;67641;59.864;30.464;2023-12-04T08:25:20;16.02;;;4.97;;
78365;SDS011;67641;59.864;30.464;2023-12-04T08:27:47;16.67;;;4.43;;
78365;SDS011;67641;59.864;30.464;2023-12-04T08:30:15;14.80;;;4.78;;
78365;SDS011;67641;59.864;30.464;2023-12-04T08:32:41;11.98;;;4.70;;
78365;SDS011;67641;59.864;30.464;2023-12-04T08:35:07;12.32;;;3.78;;
78365;SDS011;67641;59.864;30.464;2023-12-04T08:37:33;17.88;;;4.80;;
78365;SDS011;67641;59.864;30.464;2023-12-04T08:39:59;18.60;;;5.80;;
78365;SDS011;67641;59.864;30.464;2023-12-04T08:42:26;14.38;;;4.60;;
78365;SDS011;67641;59.864;30.464;2023-12-04T08:44:52;13.48;;;4.50;;
78365;SDS011;67641;59.864;30.464;2023-12-04T08:47:18;24.33;;;5.22;;
78365;SDS011;67641;59.864;30.464;2023-12-04T08:49:44;15.75;;;4.43;;
78365;SDS011;67641;59.864;30.464;2023-12-04T08:52:10;15.82;;;4.82;;
78365;SDS011;67641;59.864;30.464;2023-12-04T08:54:40;14.00;;;4.15;;
78365;SDS011;67641;59.864;30.464;2023-12-04T08:57:09;12.68;;;4.53;;
78365;SDS011;67641;59.864;30.464;2023-12-04T08:59:35;15.10;;;4.70;;
78365;SDS011;67641;59.864;30.464;2023-12-04T09:02:01;16.83;;;4.75;;
78365;SDS011;67641;59.864;30.464;2023-12-04T09:04:30;11.93;;;4.35;;
78365;SDS011;67641;59.864;30.464;2023-12-04T09:06:57;13.50;;;4.25;;
78365;SDS011;67641;59.864;30.464;2023-12-04T09:09:23;20.65;;;4.85;;
78365;SDS011;67641;59.864;30.464;2023-12-04T09:11:49;15.95;;;4.35;;
78365;SDS011;67641;59.864;30.464;2023-12-04T09:14:15;15.25;;;4.80;;
78365;SDS011;67641;59.864;30.464;2023-12-04T09:16:42;18.73;;;5.18;;
78365;SDS011;67641;59.864;30.464;2023-12-04T09:19:08;17.33;;;5.38;;
78365;SDS011;67641;59.864;30.464;2023-12-04T09:21:35;16.83;;;5.18;;
78365;SDS011;67641;59.864;30.464;2023-12-04T09:24:01;15.80;;;5.68;;
78365;SDS011;67641;59.864;30.464;2023-12-04T09:26:27;16.42;;;4.85;;
78365;SDS011;67641;59.864;30.464;2023-12-04T09:28:53;20.25;;;4.75;;
78365;SDS011;67641;59.864;30.464;2023-12-04T09:31:19;16.02;;;5.65;;
78365;SDS011;67641;59.864;30.464;2023-12-04T09:33:46;15.90;;;4.78;;
78365;SDS011;67641;59.864;30.464;2023-12-04T09:36:14;16.42;;;5.18;;
78365;SDS011;67641;59.864;30.464;2023-12-04T09:38:42;18.05;;;4.82;;
78365;SDS011;67641;59.864;30.464;2023-12-04T09:41:09;16.25;;;4.75;;
78365;SDS011;67641;59.864;30.464;2023-12-04T09:43:37;16.98;;;4.95;;
78365;SDS011;67641;59.864;30.464;2023-12-04T09:46:04;14.38;;;4.60;;
78365;SDS011;67641;59.864;30.464;2023-12-04T09:48:30;14.90;;;4.55;;
78365;SDS011;67641;59.864;30.464;2023-12-04T09:50:57;14.75;;;5.00;;
78365;SDS011;67641;59.864;30.464;2023-12-04T09:53:24;16.40;;;4.35;;
78365;SDS011;67641;59.864;30.464;2023-12-04T09:58:19;15.90;;;6.00;;
78365;SDS011;67641;59.864;30.464;2023-12-04T10:00:46;13.88;;;4.65;;
78365;SDS011;67641;59.864;30.464;2023-12-04T10:03:13;16.92;;;4.90;;
78365;SDS011;67641;59.864;30.464;2023-12-04T10:05:42;14.65;;;4.78;;
78365;SDS011;67641;59.864;30.464;2023-12-04T10:08:11;14.95;;;5.50;;
78365;SDS011;67641;59.864;30.464;2023-12-04T10:10:37;13.80;;;5.47;;
78365;SDS011;67641;59.864;30.464;2023-12-04T10:13:03;21.25;;;6.10;;
78365;SDS011;67641;59.864;30.464;2023-12-04T10:15:29;13.73;;;5.80;;
78365;SDS011;67641;59.864;30.464;2023-12-04T10:17:56;17.27;;;6.18;;
78365;SDS011;67641;59.864;30.464;2023-12-04T10:20:22;14.35;;;5.95;;
78365;SDS011;67641;59.864;30.464;2023-12-04T10:22:57;16.70;;;6.20;;
78365;SDS011;67641;59.864;30.464;2023-12-04T10:25:30;17.20;;;5.55;;
78365;SDS011;67641;59.864;30.464;2023-12-04T10:28:09;21.73;;;6.38;;
78365;SDS011;67641;59.864;30.464;2023-12-04T10:30:38;19.02;;;6.85;;
78365;SDS011;67641;59.864;30.464;2023-12-04T10:33:05;16.10;;;5.95;;
78365;SDS011;67641;59.864;30.464;2023-12-04T10:35:33;15.35;;;6.20;;
78365;SDS011;67641;59.864;30.464;2023-12-04T10:38:04;12.43;;;5.43;;
78365;SDS011;67641;59.864;30.464;2023-12-04T10:40:32;20.48;;;5.93;;
78365;SDS011;67641;59.864;30.464;2023-12-04T10:43:16;16.65;;;6.18;;
78365;SDS011;67641;59.864;30.464;2023-12-04T10:45:48;19.42;;;7.40;;
78365;SDS011;67641;59.864;30.464;2023-12-04T10:48:15;18.83;;;7.30;;
78365;SDS011;67641;59.864;30.464;2023-12-04T10:50:43;17.42;;;6.95;;
78365;SDS011;67641;59.864;30.464;2023-12-04T10:53:11;21.55;;;8.18;;
78365;SDS011;67641;59.864;30.464;2023-12-04T10:55:38;21.13;;;7.97;;
78365;SDS011;67641;59.864;30.464;2023-12-04T10:58:07;20.55;;;7.75;;
78365;SDS011;67641;59.864;30.464;2023-12-04T11:00:39;19.33;;;7.13;;
78365;SDS011;67641;59.864;30.464;2023-12-04T11:03:10;16.35;;;7.18;;
78365;SDS011;67641;59.864;30.464;2023-12-04T11:05:40;19.55;;;7.05;;
78365;SDS011;67641;59.864;30.464;2023-12-04T11:08:08;19.77;;;6.97;;
78365;SDS011;67641;59.864;30.464;2023-12-04T11:11:13;20.58;;;6.72;;
78365;SDS011;67641;59.864;30.464;2023-12-04T11:13:36;23.45;;;7.20;;
78365;SDS011;67641;59.864;30.464;2023-12-04T11:19:11;22.77;;;7.05;;
78365;SDS011;67641;59.864;30.464;2023-12-04T11:21:51;16.90;;;7.05;;
78365;SDS011;67641;59.864;30.464;2023-12-04T11:24:19;23.70;;;7.07;;
78365;SDS011;67641;59.864;30.464;2023-12-04T11:26:47;21.95;;;7.35;;
78365;SDS011;67641;59.864;30.464;2023-12-04T11:29:14;24.42;;;7.15;;
78365;SDS011;67641;59.864;30.464;2023-12-04T11:31:41;18.38;;;7.45;;
78365;SDS011;67641;59.864;30.464;2023-12-04T11:34:08;25.52;;;6.95;;
78365;SDS011;67641;59.864;30.464;2023-12-04T11:36:37;19.20;;;7.43;;
78365;SDS011;67641;59.864;30.464;2023-12-04T11:39:08;19.85;;;6.90;;
78365;SDS011;67641;59.864;30.464;2023-12-04T11:41:37;18.08;;;6.55;;
78365;SDS011;67641;59.864;30.464;2023-12-04T11:44:03;24.52;;;7.18;;
78365;SDS011;67641;59.864;30.464;2023-12-04T11:46:38;18.08;;;7.13;;
78365;SDS011;67641;59.864;30.464;2023-12-04T11:51:54;18.52;;;6.65;;
78365;SDS011;67641;59.864;30.464;2023-12-04T11:54:25;24.50;;;7.32;;
78365;SDS011;67641;59.864;30.464;2023-12-04T11:56:59;21.52;;;7.57;;
78365;SDS011;67641;59.864;30.464;2023-12-04T11:59:37;25.98;;;7.18;;
78365;SDS011;67641;59.864;30.464;2023-12-04T12:02:07;22.60;;;6.97;;
78365;SDS011;67641;59.864;30.464;2023-12-04T12:04:34;18.13;;;7.10;;
78365;SDS011;67641;59.864;30.464;2023-12-04T12:07:00;17.02;;;6.53;;
78365;SDS011;67641;59.864;30.464;2023-12-04T12:09:28;15.63;;;7.00;;
78365;SDS011;67641;59.864;30.464;2023-12-04T12:11:54;20.73;;;6.75;;
78365;SDS011;67641;59.864;30.464;2023-12-04T12:14:21;15.57;;;6.55;;
78365;SDS011;67641;59.864;30.464;2023-12-04T12:16:47;19.45;;;6.80;;
78365;SDS011;67641;59.864;30.464;2023-12-04T12:19:14;18.70;;;6.47;;
78365;SDS011;67641;59.864;30.464;2023-12-04T12:21:40;18.67;;;6.97;;
78365;SDS011;67641;59.864;30.464;2023-12-04T12:24:07;19.30;;;7.40;;
78365;SDS011;67641;59.864;30.464;2023-12-04T12:26:33;19.10;;;6.65;;
78365;SDS011;67641;59.864;30.464;2023-12-04T12:28:59;22.48;;;6.65;;
78365;SDS011;67641;59.864;30.464;2023-12-04T12:31:25;20.23;;;6.18;;
78365;SDS011;67641;59.864;30.464;2023-12-04T12:33:51;20.02;;;7.25;;
78365;SDS011;67641;59.864;30.464;2023-12-04T12:36:17;23.92;;;7.05;;
78365;SDS011;67641;59.864;30.464;2023-12-04T12:38:44;17.27;;;6.80;;
78365;SDS011;67641;59.864;30.464;2023-12-04T12:41:16;24.88;;;7.88;;
78365;SDS011;67641;59.864;30.464;2023-12-04T12:43:43;23.52;;;6.90;;
78365;SDS011;67641;59.864;30.464;2023-12-04T12:46:09;22.02;;;6.38;;
78365;SDS011;67641;59.864;30.464;2023-12-04T12:48:36;17.73;;;6.28;;
78365;SDS011;67641;59.864;30.464;2023-12-04T12:51:02;16.88;;;6.57;;
78365;SDS011;67641;59.864;30.464;2023-12-04T12:53:31;23.60;;;6.75;;
78365;SDS011;67641;59.864;30.464;2023-12-04T12:55:59;18.15;;;6.50;;
78365;SDS011;67641;59.864;30.464;2023-12-04T12:58:27;25.90;;;7.03;;
78365;SDS011;67641;59.864;30.464;2023-12-04T13:00:54;23.10;;;6.90;;
78365;SDS011;67641;59.864;30.464;2023-12-04T13:03:20;22.70;;;6.72;;
78365;SDS011;67641;59.864;30.464;2023-12-04T13:05:47;20.52;;;6.32;;
78365;SDS011;67641;59.864;30.464;2023-12-04T13:08:13;22.73;;;7.25;;
78365;SDS011;67641;59.864;30.464;2023-12-04T13:10:40;24.15;;;7.18;;
78365;SDS011;67641;59.864;30.464;2023-12-04T13:13:10;22.33;;;7.03;;
78365;SDS011;67641;59.864;30.464;2023-12-04T13:15:37;21.70;;;7.00;;
78365;SDS011;67641;59.864;30.464;2023-12-04T13:18:04;18.50;;;7.57;;
78365;SDS011;67641;59.864;30.464;2023-12-04T13:20:30;15.98;;;6.25;;
78365;SDS011;67641;59.864;30.464;2023-12-04T13:22:56;27.20;;;7.03;;
78365;SDS011;67641;59.864;30.464;2023-12-04T13:25:22;25.20;;;7.32;;
78365;SDS011;67641;59.864;30.464;2023-12-04T13:27:48;21.17;;;6.63;;
78365;SDS011;67641;59.864;30.464;2023-12-04T13:30:14;22.67;;;7.57;;
78365;SDS011;67641;59.864;30.464;2023-12-04T13:32:40;25.13;;;7.32;;
78365;SDS011;67641;59.864;30.464;2023-12-04T13:35:07;29.98;;;6.97;;
78365;SDS011;67641;59.864;30.464;2023-12-04T13:37:33;20.58;;;7.35;;
78365;SDS011;67641;59.864;30.464;2023-12-04T13:40:02;24.85;;;7.35;;
78365;SDS011;67641;59.864;30.464;2023-12-04T13:42:41;27.10;;;6.35;;
78365;SDS011;67641;59.864;30.464;2023-12-04T13:45:26;19.63;;;6.90;;
78365;SDS011;67641;59.864;30.464;2023-12-04T13:47:52;24.85;;;7.20;;
78365;SDS011;67641;59.864;30.464;2023-12-04T13:50:18;20.02;;;6.43;;
78365;SDS011;67641;59.864;30.464;2023-12-04T13:52:44;22.88;;;7.78;;
78365;SDS011;67641;59.864;30.464;2023-12-04T13:55:18;23.63;;;6.50;;
78365;SDS011;67641;59.864;30.464;2023-12-04T13:57:47;19.42;;;6.18;;
78365;SDS011;67641;59.864;30.464;2023-12-04T14:00:36;18.23;;;6.75;;
78365;SDS011;67641;59.864;30.464;2023-12-04T14:03:03;19.48;;;6.97;;
78365;SDS011;67641;59.864;30.464;2023-12-04T14:05:30;16.00;;;6.05;;
78365;SDS011;67641;59.864;30.464;2023-12-04T14:07:57;19.88;;;6.40;;
78365;SDS011;67641;59.864;30.464;2023-12-04T14:10:24;19.40;;;5.63;;
78365;SDS011;67641;59.864;30.464;2023-12-04T14:12:54;30.00;;;8.98;;
78365;SDS011;67641;59.864;30.464;2023-12-04T14:15:20;19.67;;;6.32;;
78365;SDS011;67641;59.864;30.464;2023-12-04T14:17:46;20.30;;;6.45;;
78365;SDS011;67641;59.864;30.464;2023-12-04T14:20:12;16.70;;;6.00;;
78365;SDS011;67641;59.864;30.464;2023-12-04T14:22:43;20.63;;;6.53;;
78365;SDS011;67641;59.864;30.464;2023-12-04T14:25:13;18.13;;;5.82;;
78365;SDS011;67641;59.864;30.464;2023-12-04T14:27:40;19.83;;;5.97;;
78365;SDS011;67641;59.864;30.464;2023-12-04T14:30:08;18.73;;;5.55;;
78365;SDS011;67641;59.864;30.464;2023-12-04T14:32:35;27.77;;;5.65;;